Terminal Aerodrome Forecast
Issued by NWS

Current Version | Previous Version | Text Only | Print | Product List | Glossary On
Versions: 1 2 3 4 5 6 7 8 9 10 11 12 13 14 15 16 17 18 19 20 21 22 23 24 25 26 27 28
000
FTUS41 KOKX 230500
TAFTEB
TAF
KTEB 230528Z 2306/2406 36016G25KT P6SM BKN015
      TEMPO 2306/2309 5SM -RA BR SCT015 BKN030
     FM230900 35016G24KT 6SM BR VCSH BKN010
     FM231400 34015G23KT P6SM VCSH BKN015
     FM231800 33013G22KT P6SM BKN030 OVC040
     FM232200 33016G23KT P6SM BKN040 BKN080
     FM240200 33011G16KT P6SM BKN050 BKN080=

USA.gov is the U.S. government's official web portal to all federal, state and local government web resources and services.